createdAt,value
2023-03-28T00:01:00.249Z,19.70
2023-03-28T00:03:29.033Z,19.60
2023-03-28T00:06:02.656Z,19.60
2023-03-28T00:08:29.822Z,19.60
2023-03-28T00:11:18.667Z,19.60
2023-03-28T00:13:50.158Z,19.60
2023-03-28T00:16:17.326Z,19.60
2023-03-28T00:18:44.106Z,19.60
2023-03-28T00:21:33.355Z,19.60
2023-03-28T00:24:04.323Z,19.60
2023-03-28T00:26:32.556Z,19.60
2023-03-28T00:29:01.457Z,19.60
2023-03-28T00:31:28.707Z,19.60
2023-03-28T00:33:55.749Z,19.60
2023-03-28T00:36:23.088Z,19.60
2023-03-28T00:38:50.160Z,19.60
2023-03-28T00:41:18.323Z,19.60
2023-03-28T00:43:46.504Z,19.60
2023-03-28T00:46:21.161Z,19.60
2023-03-28T00:48:50.736Z,19.60
2023-03-28T00:51:18.635Z,19.60
2023-03-28T00:53:45.292Z,19.60
2023-03-28T00:56:12.597Z,19.60
2023-03-28T00:58:44.896Z,19.60
2023-03-28T01:01:12.391Z,19.60
2023-03-28T01:03:41.390Z,19.60
2023-03-28T01:06:09.927Z,19.60
2023-03-28T01:08:40.025Z,19.60
2023-03-28T01:11:07.012Z,19.60
2023-03-28T01:13:40.445Z,19.60
2023-03-28T01:16:09.083Z,19.60
2023-03-28T01:18:36.283Z,19.60
2023-03-28T01:21:06.275Z,19.60
2023-03-28T01:23:47.462Z,19.60
2023-03-28T01:26:23.023Z,19.60
2023-03-28T01:29:17.666Z,19.60
2023-03-28T01:32:03.376Z,19.60
2023-03-28T01:34:43.622Z,19.60
2023-03-28T01:37:26.145Z,19.60
2023-03-28T01:39:55.988Z,19.60
2023-03-28T01:42:51.077Z,19.60
2023-03-28T01:45:22.572Z,19.60
2023-03-28T01:48:19.788Z,19.60
2023-03-28T01:51:01.950Z,19.60
2023-03-28T01:54:12.860Z,19.60
2023-03-28T01:56:45.985Z,19.60
2023-03-28T01:59:26.539Z,19.60
2023-03-28T02:02:05.845Z,19.60
2023-03-28T02:04:33.444Z,19.60
2023-03-28T02:07:00.263Z,19.50
2023-03-28T02:09:27.458Z,19.60
2023-03-28T02:11:58.285Z,19.60
2023-03-28T02:14:26.590Z,19.60
2023-03-28T02:16:57.509Z,19.60
2023-03-28T02:19:26.908Z,19.60
2023-03-28T02:22:23.017Z,19.60
2023-03-28T02:24:51.873Z,19.60
2023-03-28T02:27:20.564Z,19.60
2023-03-28T02:29:49.340Z,19.60
2023-03-28T02:32:17.281Z,19.60
2023-03-28T02:34:45.353Z,19.60
2023-03-28T02:37:33.420Z,19.60
2023-03-28T02:40:15.290Z,19.60
2023-03-28T02:43:20.130Z,19.60
2023-03-28T02:45:46.859Z,19.50
2023-03-28T02:48:16.876Z,19.50
2023-03-28T02:50:46.174Z,19.60
2023-03-28T02:53:34.885Z,19.60
2023-03-28T02:56:16.565Z,19.60
2023-03-28T02:58:53.570Z,19.60
2023-03-28T03:01:21.064Z,19.60
2023-03-28T03:03:49.957Z,19.60
2023-03-28T03:06:18.026Z,19.60
2023-03-28T03:08:45.322Z,19.60
2023-03-28T03:11:12.251Z,19.60
2023-03-28T03:13:38.938Z,19.60
2023-03-28T03:16:06.091Z,19.60
2023-03-28T03:18:34.858Z,19.60
2023-03-28T03:21:01.810Z,19.60
2023-03-28T03:23:28.835Z,19.60
2023-03-28T03:25:55.491Z,19.60
2023-03-28T03:28:22.246Z,19.60
2023-03-28T03:30:48.985Z,19.60
2023-03-28T03:33:17.059Z,19.60
2023-03-28T03:35:46.440Z,19.50
2023-03-28T03:38:13.501Z,19.60
2023-03-28T03:40:40.645Z,19.60
2023-03-28T03:43:07.460Z,19.60
2023-03-28T03:45:34.135Z,19.60
2023-03-28T03:48:00.973Z,19.60
2023-03-28T03:50:27.794Z,19.60
2023-03-28T03:52:54.499Z,19.50
2023-03-28T03:55:21.154Z,19.60
2023-03-28T03:57:49.289Z,19.60
2023-03-28T04:00:17.813Z,19.60
2023-03-28T04:02:45.349Z,19.60
2023-03-28T04:05:12.095Z,19.60
2023-03-28T04:07:38.828Z,19.60
2023-03-28T04:10:06.260Z,19.50
2023-03-28T04:12:33.002Z,19.60
2023-03-28T04:14:59.684Z,19.60
2023-03-28T04:17:29.883Z,19.60
2023-03-28T04:19:57.020Z,19.60
2023-03-28T04:22:23.927Z,19.60
2023-03-28T04:24:53.506Z,19.60
2023-03-28T04:27:21.142Z,19.60
2023-03-28T04:29:47.839Z,19.60
2023-03-28T04:32:14.760Z,19.60
2023-03-28T04:34:41.466Z,19.60
2023-03-28T04:37:09.168Z,19.60
2023-03-28T04:39:35.944Z,19.60
2023-03-28T04:42:05.272Z,19.60
2023-03-28T04:44:32.189Z,19.60
2023-03-28T04:47:00.251Z,19.60
2023-03-28T04:49:27.132Z,19.60
2023-03-28T04:51:53.839Z,19.60
2023-03-28T04:54:24.779Z,19.60
2023-03-28T04:56:52.634Z,19.60
2023-03-28T04:59:21.656Z,19.60
2023-03-28T05:01:51.602Z,19.60
2023-03-28T05:04:20.266Z,19.60
2023-03-28T05:06:47.297Z,19.60
2023-03-28T05:09:14.512Z,19.60
2023-03-28T05:11:41.302Z,19.60
2023-03-28T05:14:08.002Z,19.50
2023-03-28T05:16:34.837Z,19.60
2023-03-28T05:19:01.704Z,19.60
2023-03-28T05:21:28.512Z,19.60
2023-03-28T05:23:55.551Z,19.60
2023-03-28T05:26:22.279Z,19.60
2023-03-28T05:28:49.734Z,19.60
2023-03-28T05:31:17.428Z,19.60
2023-03-28T05:33:44.236Z,19.60
2023-03-28T05:36:11.163Z,19.50
2023-03-28T05:38:37.877Z,19.60
2023-03-28T05:41:04.736Z,19.50
2023-03-28T05:43:31.716Z,19.50
2023-03-28T05:45:59.234Z,19.50
2023-03-28T05:48:26.015Z,19.50
2023-03-28T05:50:52.713Z,19.50
2023-03-28T05:53:21.522Z,19.60
2023-03-28T05:55:50.107Z,19.60
2023-03-28T05:58:17.550Z,19.60
2023-03-28T06:00:44.717Z,19.60
2023-03-28T06:03:17.365Z,19.50
2023-03-28T06:05:44.706Z,19.50
2023-03-28T06:08:11.754Z,19.50
2023-03-28T06:10:38.729Z,19.50
2023-03-28T06:13:05.588Z,19.60
2023-03-28T06:15:32.664Z,19.50
2023-03-28T06:17:59.531Z,19.50
2023-03-28T06:20:26.261Z,19.60
2023-03-28T06:22:52.944Z,19.60
2023-03-28T06:25:21.220Z,19.50
2023-03-28T06:27:47.940Z,19.60
2023-03-28T06:30:15.361Z,19.60
2023-03-28T06:32:42.144Z,19.70
2023-03-28T06:35:09.042Z,19.60
2023-03-28T06:37:35.710Z,19.70
2023-03-28T06:40:03.191Z,19.60
2023-03-28T06:42:29.926Z,19.60
2023-03-28T06:44:56.654Z,19.60
2023-03-28T06:47:23.388Z,19.60
2023-03-28T06:49:51.962Z,19.50
2023-03-28T06:52:20.158Z,19.60
2023-03-28T06:54:48.424Z,19.60
2023-03-28T06:57:16.686Z,19.60
2023-03-28T06:59:43.510Z,19.60
2023-03-28T07:02:12.774Z,19.60
2023-03-28T07:04:39.541Z,19.60
2023-03-28T07:07:07.812Z,19.60
2023-03-28T07:09:34.612Z,19.60
2023-03-28T07:12:01.335Z,19.70
2023-03-28T07:14:28.060Z,19.70
2023-03-28T07:16:58.673Z,19.70
2023-03-28T07:19:25.515Z,19.60
2023-03-28T07:21:53.223Z,19.60
2023-03-28T07:24:22.125Z,19.60
2023-03-28T07:26:51.203Z,19.60
2023-03-28T07:29:21.980Z,19.60
2023-03-28T07:31:49.952Z,19.60
2023-03-28T07:34:19.757Z,19.60
2023-03-28T07:36:46.880Z,19.60
2023-03-28T07:39:13.539Z,19.70
2023-03-28T07:41:40.539Z,19.70
2023-03-28T07:44:07.534Z,19.70
2023-03-28T07:46:37.427Z,19.70
2023-03-28T07:49:04.310Z,19.80
2023-03-28T07:51:31.403Z,19.80
2023-03-28T07:53:58.266Z,19.80
2023-03-28T07:56:24.943Z,19.80
2023-03-28T07:58:52.124Z,19.80
2023-03-28T08:01:21.291Z,19.80
2023-03-28T08:03:48.224Z,19.80
2023-03-28T08:06:31.112Z,19.80
2023-03-28T08:08:58.990Z,19.80
2023-03-28T08:11:27.233Z,19.80
2023-03-28T08:13:54.321Z,19.80
2023-03-28T08:16:22.023Z,19.70
2023-03-28T08:18:57.099Z,19.70
2023-03-28T08:21:35.358Z,19.80
2023-03-28T08:24:03.081Z,19.90
2023-03-28T08:26:30.301Z,19.90
2023-03-28T08:28:59.231Z,19.90
2023-03-28T08:31:27.724Z,19.80
2023-03-28T08:33:54.787Z,19.90
2023-03-28T08:36:23.117Z,19.90
2023-03-28T08:38:51.678Z,19.90
2023-03-28T08:41:30.302Z,19.90
2023-03-28T08:44:05.308Z,19.90
2023-03-28T08:46:32.331Z,19.90
2023-03-28T08:48:59.942Z,19.90
2023-03-28T08:51:40.905Z,19.90
2023-03-28T08:54:21.548Z,19.90
2023-03-28T08:56:53.026Z,19.90
2023-03-28T08:59:40.722Z,20.00
2023-03-28T09:02:28.091Z,20.00
2023-03-28T09:05:02.108Z,20.00
2023-03-28T09:07:44.552Z,20.00
2023-03-28T09:10:38.801Z,20.10
2023-03-28T09:13:27.994Z,20.10
2023-03-28T09:16:02.393Z,20.10
2023-03-28T09:18:32.124Z,20.10
2023-03-28T09:21:17.216Z,20.10
2023-03-28T09:24:01.786Z,20.10
2023-03-28T09:26:34.716Z,20.20
2023-03-28T09:29:06.347Z,20.20
2023-03-28T09:31:35.707Z,20.20
2023-03-28T09:34:02.660Z,20.20
2023-03-28T09:36:41.070Z,20.20
2023-03-28T09:39:33.319Z,20.30
2023-03-28T09:42:24.618Z,20.30
2023-03-28T09:44:58.062Z,20.30
2023-03-28T09:47:24.895Z,20.30
2023-03-28T09:50:02.112Z,20.30
2023-03-28T09:52:32.686Z,20.30
2023-03-28T09:55:00.530Z,20.30
2023-03-28T09:57:27.303Z,20.30
2023-03-28T09:59:56.741Z,20.30
2023-03-28T10:02:27.780Z,20.30
2023-03-28T10:04:54.925Z,20.30
2023-03-28T10:07:43.609Z,20.30
2023-03-28T10:10:18.093Z,20.30
2023-03-28T10:12:46.619Z,20.40
2023-03-28T10:15:39.021Z,20.40
2023-03-28T10:18:06.621Z,20.40
2023-03-28T10:20:36.618Z,20.50
2023-03-28T10:23:04.632Z,20.50
2023-03-28T10:25:37.611Z,20.50
2023-03-28T10:28:05.407Z,20.50
2023-03-28T10:30:33.216Z,20.50
2023-03-28T10:33:18.459Z,20.50
2023-03-28T10:35:58.517Z,20.50
2023-03-28T10:38:35.967Z,20.50
2023-03-28T10:41:10.002Z,20.50
2023-03-28T10:43:40.607Z,20.60
2023-03-28T10:46:30.303Z,20.60
2023-03-28T10:49:07.848Z,20.70
2023-03-28T10:51:34.587Z,20.70
2023-03-28T10:54:28.603Z,20.70
2023-03-28T10:56:56.260Z,20.70
2023-03-28T10:59:53.879Z,20.70
2023-03-28T11:03:08.310Z,20.80
2023-03-28T11:06:08.659Z,20.80
2023-03-28T11:08:57.983Z,20.80
2023-03-28T11:11:39.669Z,20.80
2023-03-28T11:14:21.492Z,20.70
2023-03-28T11:16:54.562Z,20.80
2023-03-28T11:19:30.143Z,20.70
2023-03-28T11:22:00.581Z,20.70
2023-03-28T11:24:36.178Z,20.90
2023-03-28T11:27:16.243Z,20.80
2023-03-28T11:30:05.409Z,20.70
2023-03-28T11:32:37.827Z,20.70
2023-03-28T11:35:17.131Z,20.80
2023-03-28T11:37:58.533Z,20.90
2023-03-28T11:40:34.328Z,20.90
2023-03-28T11:43:05.736Z,20.90
2023-03-28T11:45:52.163Z,20.90
2023-03-28T11:48:22.144Z,20.80
2023-03-28T11:51:15.357Z,20.90
2023-03-28T11:53:55.136Z,20.80
2023-03-28T11:56:51.429Z,20.80
2023-03-28T11:59:23.872Z,20.80
2023-03-28T12:01:54.925Z,20.90
2023-03-28T12:04:28.647Z,20.80
2023-03-28T12:07:40.161Z,20.90
2023-03-28T12:10:14.641Z,20.80
2023-03-28T12:13:03.142Z,20.90
2023-03-28T12:15:36.995Z,20.90
2023-03-28T12:18:06.914Z,20.90
2023-03-28T12:21:00.946Z,21.10
2023-03-28T12:23:50.749Z,21.00
2023-03-28T12:26:21.599Z,20.40
2023-03-28T12:28:55.844Z,19.70
2023-03-28T12:31:36.184Z,19.30
2023-03-28T12:34:10.761Z,19.00
2023-03-28T12:36:49.734Z,19.10
2023-03-28T12:39:35.684Z,19.40
2023-03-28T12:42:04.646Z,19.60
2023-03-28T12:44:46.681Z,19.80
2023-03-28T12:47:27.259Z,19.90
2023-03-28T12:50:09.858Z,20.10
2023-03-28T12:52:38.177Z,20.20
2023-03-28T12:55:09.770Z,20.40
2023-03-28T12:57:45.780Z,20.50
2023-03-28T13:00:23.109Z,20.50
2023-03-28T13:03:07.638Z,20.60
2023-03-28T13:05:56.370Z,20.70
2023-03-28T13:08:57.515Z,20.70
2023-03-28T13:11:33.864Z,20.70
2023-03-28T13:14:34.604Z,20.80
2023-03-28T13:17:16.829Z,20.80
2023-03-28T13:19:43.543Z,20.80
2023-03-28T13:22:40.302Z,20.80
2023-03-28T13:25:23.769Z,20.80
2023-03-28T13:28:12.866Z,20.90
2023-03-28T13:30:43.658Z,20.90
2023-03-28T13:33:24.189Z,20.90
2023-03-28T13:36:00.502Z,20.90
2023-03-28T13:38:27.313Z,21.00
2023-03-28T13:41:06.578Z,21.00
2023-03-28T13:43:36.308Z,21.00
2023-03-28T13:46:12.440Z,21.00
2023-03-28T13:49:07.823Z,21.10
2023-03-28T13:51:42.244Z,21.10
2023-03-28T13:54:10.702Z,21.10
2023-03-28T13:56:40.381Z,21.10
2023-03-28T13:59:08.118Z,21.10
2023-03-28T14:01:55.895Z,21.10
2023-03-28T14:04:27.118Z,21.10
2023-03-28T14:06:54.952Z,21.20
2023-03-28T14:09:26.554Z,21.20
2023-03-28T14:11:57.936Z,21.20
2023-03-28T14:14:40.873Z,21.30
2023-03-28T14:17:18.503Z,21.30
2023-03-28T14:19:47.194Z,21.30
2023-03-28T14:22:19.068Z,21.30
2023-03-28T14:24:47.019Z,21.40
2023-03-28T14:27:15.623Z,21.30
2023-03-28T14:29:55.202Z,21.40
2023-03-28T14:32:26.425Z,21.40
2023-03-28T14:34:55.705Z,21.40
2023-03-28T14:37:24.875Z,21.40
2023-03-28T14:39:53.783Z,21.40
2023-03-28T14:42:21.026Z,21.40
2023-03-28T14:44:51.152Z,21.40
2023-03-28T14:47:29.966Z,21.40
2023-03-28T14:49:56.805Z,21.50
2023-03-28T14:52:29.712Z,21.50
2023-03-28T14:54:56.857Z,21.50
2023-03-28T14:57:25.108Z,21.50
2023-03-28T14:59:53.807Z,21.60
2023-03-28T15:02:31.815Z,21.60
2023-03-28T15:05:02.169Z,21.60
2023-03-28T15:07:29.478Z,21.60
2023-03-28T15:10:24.705Z,21.50
2023-03-28T15:13:21.995Z,21.60
2023-03-28T15:15:50.171Z,21.60
2023-03-28T15:18:19.153Z,21.60
2023-03-28T15:20:48.349Z,21.60
2023-03-28T15:23:17.151Z,21.70
2023-03-28T15:25:44.363Z,21.70
2023-03-28T15:28:14.366Z,21.70
2023-03-28T15:30:43.592Z,21.70
2023-03-28T15:33:26.017Z,21.80
2023-03-28T15:36:12.641Z,21.80
2023-03-28T15:38:40.018Z,21.80
2023-03-28T15:41:11.892Z,21.80
2023-03-28T15:43:59.941Z,21.80
2023-03-28T15:46:31.417Z,21.70
2023-03-28T15:49:02.137Z,21.70
2023-03-28T15:51:28.860Z,21.70
2023-03-28T15:53:55.628Z,21.70
2023-03-28T15:56:28.156Z,21.70
2023-03-28T15:58:59.641Z,21.60
2023-03-28T16:01:28.854Z,21.60
2023-03-28T16:04:22.322Z,21.60
2023-03-28T16:06:49.462Z,21.60
2023-03-28T16:09:24.220Z,21.60
2023-03-28T16:12:03.213Z,21.60
2023-03-28T16:14:29.962Z,21.70
2023-03-28T16:16:56.784Z,21.70
2023-03-28T16:19:26.869Z,21.70
2023-03-28T16:21:55.051Z,21.70
2023-03-28T16:24:22.972Z,21.70
2023-03-28T16:26:49.920Z,21.70
2023-03-28T16:29:16.820Z,21.70
2023-03-28T16:31:43.713Z,21.70
2023-03-28T16:34:10.498Z,21.70
2023-03-28T16:36:40.598Z,21.70
2023-03-28T16:39:08.020Z,21.70
2023-03-28T16:41:35.783Z,21.70
2023-03-28T16:44:02.763Z,21.60
2023-03-28T16:46:29.512Z,21.70
2023-03-28T16:48:56.346Z,21.60
2023-03-28T16:51:24.723Z,21.70
2023-03-28T16:53:52.065Z,21.70
2023-03-28T16:56:19.166Z,21.60
2023-03-28T16:58:45.999Z,21.60
2023-03-28T17:01:18.878Z,21.60
2023-03-28T17:03:46.377Z,21.70
2023-03-28T17:06:13.200Z,21.60
2023-03-28T17:08:40.173Z,21.70
2023-03-28T17:11:08.877Z,21.60
2023-03-28T17:13:36.815Z,21.60
2023-03-28T17:16:03.897Z,21.60
2023-03-28T17:18:31.853Z,21.60
2023-03-28T17:21:03.542Z,21.60
2023-03-28T17:23:30.511Z,21.60
2023-03-28T17:25:57.274Z,21.60
2023-03-28T17:28:25.266Z,21.60
2023-03-28T17:30:53.629Z,21.60
2023-03-28T17:33:20.524Z,21.60
2023-03-28T17:35:47.443Z,21.60
2023-03-28T17:38:14.554Z,21.60
2023-03-28T17:40:46.789Z,21.50
2023-03-28T17:43:13.567Z,21.50
2023-03-28T17:45:40.482Z,21.50
2023-03-28T17:48:11.407Z,21.50
2023-03-28T17:50:38.827Z,21.40
2023-03-28T17:53:06.803Z,21.40
2023-03-28T17:55:34.316Z,21.50
2023-03-28T17:58:01.121Z,21.60
2023-03-28T18:00:30.156Z,21.60
2023-03-28T18:02:59.238Z,21.60
2023-03-28T18:05:28.139Z,21.60
2023-03-28T18:07:56.534Z,21.60
2023-03-28T18:10:24.125Z,21.60
2023-03-28T18:12:51.239Z,21.60
2023-03-28T18:15:17.984Z,21.70
2023-03-28T18:17:45.396Z,21.60
2023-03-28T18:20:12.754Z,21.60
2023-03-28T18:22:39.554Z,21.50
2023-03-28T18:25:06.893Z,21.50
2023-03-28T18:27:34.009Z,21.50
2023-03-28T18:30:06.426Z,21.50
2023-03-28T18:32:33.749Z,21.50
2023-03-28T18:35:01.164Z,21.60
2023-03-28T18:37:28.322Z,21.70
2023-03-28T18:39:57.520Z,21.60
2023-03-28T18:42:25.995Z,21.70
2023-03-28T18:44:52.813Z,21.80
2023-03-28T18:47:19.686Z,21.80
2023-03-28T18:49:46.374Z,21.80
2023-03-28T18:52:13.373Z,21.80
2023-03-28T18:54:45.718Z,21.80
2023-03-28T18:57:12.528Z,21.70
2023-03-28T18:59:40.372Z,21.70
2023-03-28T19:02:12.267Z,21.60
2023-03-28T19:04:39.693Z,21.60
2023-03-28T19:07:06.509Z,21.50
2023-03-28T19:09:33.184Z,21.50
2023-03-28T19:12:01.462Z,21.50
2023-03-28T19:14:28.347Z,21.60
2023-03-28T19:16:55.548Z,21.50
2023-03-28T19:19:23.761Z,21.40
2023-03-28T19:21:51.740Z,21.50
2023-03-28T19:24:21.217Z,21.50
2023-03-28T19:26:49.484Z,21.50
2023-03-28T19:29:16.856Z,21.50
2023-03-28T19:31:43.912Z,21.50
2023-03-28T19:34:18.409Z,21.50
2023-03-28T19:36:46.129Z,21.50
2023-03-28T19:39:12.994Z,21.60
2023-03-28T19:41:41.081Z,21.50
2023-03-28T19:44:07.925Z,21.50
2023-03-28T19:46:36.401Z,21.50
2023-03-28T19:49:08.346Z,21.50
2023-03-28T19:51:35.041Z,21.50
2023-03-28T19:54:01.716Z,21.40
2023-03-28T19:56:28.812Z,21.40
2023-03-28T19:58:57.212Z,21.50
2023-03-28T20:01:23.991Z,21.40
2023-03-28T20:03:53.125Z,21.50
2023-03-28T20:06:21.293Z,21.40
2023-03-28T20:08:48.041Z,21.50
2023-03-28T20:11:15.052Z,21.50
2023-03-28T20:13:41.859Z,21.40
2023-03-28T20:16:09.317Z,21.50
2023-03-28T20:18:37.012Z,21.40
2023-03-28T20:21:05.604Z,21.50
2023-03-28T20:23:35.532Z,21.40
2023-03-28T20:26:21.719Z,21.40
2023-03-28T20:28:50.395Z,21.30
2023-03-28T20:31:17.944Z,21.30
2023-03-28T20:33:45.054Z,21.30
2023-03-28T20:36:11.865Z,21.30
2023-03-28T20:38:38.538Z,21.20
2023-03-28T20:41:12.498Z,21.20
2023-03-28T20:43:40.651Z,21.20
2023-03-28T20:46:07.610Z,21.20
2023-03-28T20:48:35.132Z,21.20
2023-03-28T20:51:05.893Z,21.10
2023-03-28T20:53:35.599Z,21.20
2023-03-28T20:56:03.452Z,21.20
2023-03-28T20:58:31.606Z,21.20
2023-03-28T21:00:59.854Z,21.10
2023-03-28T21:03:45.608Z,21.20
2023-03-28T21:06:25.916Z,21.10
2023-03-28T21:08:54.252Z,21.10
2023-03-28T21:11:29.070Z,21.10
2023-03-28T21:13:56.201Z,21.10
2023-03-28T21:16:23.281Z,21.10
2023-03-28T21:18:50.105Z,21.10
2023-03-28T21:21:17.468Z,21.00
2023-03-28T21:23:44.780Z,21.00
2023-03-28T21:26:13.472Z,21.00
2023-03-28T21:28:40.400Z,21.00
2023-03-28T21:31:10.231Z,21.10
2023-03-28T21:33:37.668Z,21.10
2023-03-28T21:36:06.692Z,21.10
2023-03-28T21:38:34.015Z,21.20
2023-03-28T21:41:01.714Z,21.10
2023-03-28T21:43:29.230Z,21.10
2023-03-28T21:45:55.979Z,21.10
2023-03-28T21:48:23.150Z,21.10
2023-03-28T21:50:55.392Z,21.00
2023-03-28T21:53:22.429Z,21.00
2023-03-28T21:55:49.419Z,21.00
2023-03-28T21:58:16.336Z,21.00
2023-03-28T22:00:43.008Z,21.00
2023-03-28T22:03:09.882Z,21.00
2023-03-28T22:05:42.663Z,21.00
2023-03-28T22:08:11.876Z,20.90
2023-03-28T22:10:44.040Z,21.00
2023-03-28T22:13:11.019Z,21.00
2023-03-28T22:15:37.886Z,21.00
2023-03-28T22:18:09.027Z,21.00
2023-03-28T22:20:37.177Z,21.00
2023-03-28T22:23:04.459Z,21.00
2023-03-28T22:25:34.834Z,20.90
2023-03-28T22:28:06.127Z,20.90
2023-03-28T22:30:33.904Z,20.90
2023-03-28T22:33:03.872Z,20.90
2023-03-28T22:35:31.988Z,20.90
2023-03-28T22:37:59.453Z,20.90
2023-03-28T22:40:26.231Z,20.90
2023-03-28T22:42:54.117Z,20.90
2023-03-28T22:45:24.383Z,20.90
2023-03-28T22:47:51.192Z,20.90
2023-03-28T22:50:18.388Z,20.90
2023-03-28T22:52:50.196Z,20.90
2023-03-28T22:55:17.303Z,20.90
2023-03-28T22:57:44.163Z,20.90
2023-03-28T23:00:12.303Z,20.90
2023-03-28T23:02:39.227Z,20.90
2023-03-28T23:05:07.878Z,20.90
2023-03-28T23:07:36.084Z,20.90
2023-03-28T23:10:05.026Z,20.80
2023-03-28T23:12:31.729Z,20.80
2023-03-28T23:14:58.401Z,20.80
2023-03-28T23:17:26.277Z,20.80
2023-03-28T23:19:54.207Z,20.80
2023-03-28T23:22:21.474Z,20.80
2023-03-28T23:24:50.661Z,20.80
2023-03-28T23:27:18.363Z,20.80
2023-03-28T23:29:45.026Z,20.80
2023-03-28T23:32:11.700Z,20.80
2023-03-28T23:34:38.888Z,20.80
2023-03-28T23:37:07.488Z,20.80
2023-03-28T23:39:34.273Z,20.80
2023-03-28T23:42:01.930Z,20.80
2023-03-28T23:44:28.958Z,20.80
2023-03-28T23:46:56.262Z,20.80
2023-03-28T23:49:23.405Z,20.80
2023-03-28T23:51:50.746Z,20.80
2023-03-28T23:54:18.620Z,20.70
2023-03-28T23:56:45.984Z,20.80
2023-03-28T23:59:12.865Z,20.80
